Time;durP1;ratioP1;P1;durP2;ratioP2;P2;SDS_P1;SDS_P2;PMS_P1;PMS_P2;Temp;Humidity;BMP_temperature;BMP_pressure;BME280_temperature;BME280_humidity;BME280_pressure;Samples;Min_cycle;Max_cycle;Signal;HPM_P1;HPM_P2
2021/04/05 00:01:42;;;;;;;46.97;14.20;;;8.40;99.90;;;;;;5024957;28;20229;-83
2021/04/05 00:04:09;;;;;;;50.13;13.80;;;8.40;99.90;;;;;;5016847;28;20810;-85
2021/04/05 00:06:36;;;;;;;43.37;13.57;;;8.50;99.90;;;;;;5006961;28;20203;-84
2021/04/05 00:09:05;;;;;;;34.20;12.23;;;8.50;99.90;;;;;;5047159;28;20225;-83
2021/04/05 00:11:32;;;;;;;39.87;13.70;;;8.70;99.90;;;;;;5034976;28;20231;-83
2021/04/05 00:13:58;;;;;;;39.90;13.33;;;8.90;99.90;;;;;;5005621;28;20269;-80
2021/04/05 00:16:24;;;;;;;32.17;12.50;;;9.00;99.90;;;;;;5006325;28;20215;-81
2021/04/05 00:18:50;;;;;;;30.60;12.90;;;9.00;99.90;;;;;;5006883;28;20237;-83
2021/04/05 00:21:21;;;;;;;25.43;11.53;;;9.10;99.90;;;;;;5005156;28;20207;-82
2021/04/05 00:23:49;;;;;;;26.10;10.77;;;9.10;99.90;;;;;;5023030;28;20661;-82
2021/04/05 00:26:16;;;;;;;27.13;10.23;;;9.10;99.90;;;;;;5025111;28;20221;-81
2021/04/05 00:28:42;;;;;;;28.60;10.57;;;9.10;99.90;;;;;;5025400;28;20240;-83
2021/04/05 00:31:09;;;;;;;32.70;10.40;;;9.10;99.90;;;;;;5025374;28;20210;-83
2021/04/05 00:33:35;;;;;;;23.77;10.43;;;9.00;99.90;;;;;;5024950;28;20206;-80
2021/04/05 00:36:01;;;;;;;30.60;11.17;;;8.90;99.90;;;;;;5024880;28;20206;-83
2021/04/05 00:38:28;;;;;;;33.93;12.33;;;8.90;99.90;;;;;;5024446;28;20198;-81
2021/04/05 00:40:59;;;;;;;31.90;11.17;;;8.90;99.90;;;;;;5023774;28;20606;-83
2021/04/05 00:43:26;;;;;;;28.47;10.97;;;8.90;99.90;;;;;;5024304;28;20210;-83
2021/04/05 00:45:53;;;;;;;26.87;11.60;;;8.80;99.90;;;;;;5025009;28;20202;-82
2021/04/05 00:48:20;;;;;;;35.37;11.13;;;8.80;99.90;;;;;;5024286;28;20223;-81
2021/04/05 00:50:49;;;;;;;25.57;10.37;;;8.80;99.90;;;;;;5025255;28;20610;-81
2021/04/05 00:53:18;;;;;;;24.33;9.63;;;8.80;99.90;;;;;;5016059;28;20215;-81
2021/04/05 00:55:46;;;;;;;27.90;10.37;;;8.70;99.90;;;;;;5002383;28;20207;-83
2021/04/05 00:58:14;;;;;;;33.57;12.63;;;8.70;99.90;;;;;;5005876;28;20207;-84
2021/04/05 01:00:44;;;;;;;23.43;10.17;;;8.80;99.90;;;;;;5006934;28;20211;-80
2021/04/05 01:03:13;;;;;;;20.53;9.97;;;8.70;99.90;;;;;;5005741;28;20215;-82
2021/04/05 01:05:39;;;;;;;26.13;10.40;;;8.70;99.90;;;;;;5009639;28;20242;-83
2021/04/05 01:08:06;;;;;;;28.30;10.20;;;8.70;99.90;;;;;;5028686;28;20670;-83
2021/04/05 01:10:33;;;;;;;25.67;10.33;;;8.70;99.90;;;;;;5027930;28;20221;-82
2021/04/05 01:13:00;;;;;;;23.60;10.77;;;8.70;99.90;;;;;;5027500;28;20494;-80
2021/04/05 01:15:27;;;;;;;32.93;13.47;;;8.70;99.90;;;;;;5027527;28;20207;-80
2021/04/05 01:17:54;;;;;;;27.60;11.10;;;8.70;99.90;;;;;;5028013;28;20214;-79
2021/04/05 01:20:20;;;;;;;26.00;10.40;;;8.70;99.90;;;;;;5027624;28;20215;-84
2021/04/05 01:22:52;;;;;;;27.20;10.23;;;8.70;99.90;;;;;;5018762;28;20287;-82
2021/04/05 01:25:20;;;;;;;29.50;9.63;;;8.70;99.90;;;;;;5007579;28;20540;-84
2021/04/05 01:27:47;;;;;;;24.07;9.83;;;8.70;99.90;;;;;;5007947;28;20233;-84
2021/04/05 01:30:28;;;;;;;29.13;12.07;;;8.70;99.90;;;;;;5023422;28;20658;-83
2021/04/05 01:33:06;;;;;;;26.27;12.00;;;8.70;99.90;;;;;;5023601;28;20592;-81
2021/04/05 01:35:39;;;;;;;28.37;11.93;;;8.70;99.90;;;;;;5024380;28;20293;-82
2021/04/05 01:38:07;;;;;;;31.90;11.73;;;8.70;99.90;;;;;;5026238;28;20210;-82
2021/04/05 01:40:36;;;;;;;29.47;12.50;;;8.80;99.90;;;;;;5027546;28;20198;-80
2021/04/05 01:43:03;;;;;;;27.63;12.57;;;8.70;99.90;;;;;;5017990;28;20219;-82
2021/04/05 01:45:30;;;;;;;31.57;12.37;;;8.70;99.90;;;;;;5007303;28;20269;-82
2021/04/05 01:47:57;;;;;;;25.03;13.37;;;8.70;99.90;;;;;;5007509;28;20227;-83
2021/04/05 01:50:24;;;;;;;32.90;12.50;;;8.70;99.90;;;;;;5007867;28;20223;-81
2021/04/05 01:52:50;;;;;;;29.00;12.83;;;8.70;99.90;;;;;;5007076;28;20387;-82
2021/04/05 01:55:18;;;;;;;28.33;11.97;;;8.80;99.90;;;;;;5006610;28;20187;-83
2021/04/05 01:57:45;;;;;;;26.77;11.83;;;8.70;99.90;;;;;;5022109;28;20207;-81
2021/04/05 02:00:14;;;;;;;32.40;11.73;;;8.70;99.90;;;;;;5028480;28;20191;-82
2021/04/05 02:02:41;;;;;;;29.63;11.07;;;8.80;99.90;;;;;;5008253;28;20226;-80
2021/04/05 02:05:08;;;;;;;24.93;12.53;;;8.80;99.90;;;;;;5007008;28;20203;-82
2021/04/05 02:07:36;;;;;;;33.70;11.80;;;8.80;99.90;;;;;;5023469;28;20248;-82
2021/04/05 02:10:07;;;;;;;29.30;13.00;;;8.80;99.90;;;;;;5041883;28;20234;-82
2021/04/05 02:12:35;;;;;;;32.00;11.43;;;8.80;99.90;;;;;;5027476;28;20226;-80
2021/04/05 02:15:02;;;;;;;29.10;10.23;;;8.80;99.90;;;;;;5028208;28;20552;-81
2021/04/05 02:17:28;;;;;;;35.03;11.70;;;8.80;99.90;;;;;;5026745;28;20207;-81
2021/04/05 02:19:55;;;;;;;32.63;11.77;;;8.80;99.90;;;;;;5026660;28;20203;-81
2021/04/05 02:22:21;;;;;;;25.93;11.40;;;8.80;99.90;;;;;;5027009;28;20203;-84
2021/04/05 02:24:48;;;;;;;26.23;11.33;;;8.80;99.90;;;;;;5026240;28;20223;-83
2021/04/05 02:27:14;;;;;;;26.33;10.17;;;8.70;99.90;;;;;;5025721;28;20206;-83
2021/04/05 02:29:42;;;;;;;24.97;11.40;;;8.70;99.90;;;;;;5026219;28;20210;-83
2021/04/05 02:32:08;;;;;;;24.03;10.57;;;8.80;99.90;;;;;;5026193;28;20226;-84
2021/04/05 02:34:35;;;;;;;27.40;11.37;;;8.80;99.90;;;;;;5025373;28;20195;-81
2021/04/05 02:37:02;;;;;;;31.57;12.73;;;8.80;99.90;;;;;;5026354;28;20202;-82
2021/04/05 02:39:28;;;;;;;30.23;11.30;;;8.80;99.90;;;;;;5026736;28;20211;-81
2021/04/05 02:41:55;;;;;;;33.47;11.93;;;8.80;99.90;;;;;;5025637;28;20195;-80
2021/04/05 02:44:21;;;;;;;25.47;11.00;;;8.80;99.90;;;;;;5024019;28;20199;-81
2021/04/05 02:46:49;;;;;;;32.27;10.00;;;8.80;99.90;;;;;;5022666;28;20210;-82
2021/04/05 02:49:18;;;;;;;30.53;10.93;;;8.90;99.90;;;;;;5006983;28;20226;-83
2021/04/05 02:51:46;;;;;;;27.83;10.53;;;8.90;99.90;;;;;;5007595;28;20211;-82
2021/04/05 02:54:13;;;;;;;32.43;11.13;;;8.90;99.90;;;;;;5006539;28;20548;-83
2021/04/05 02:56:40;;;;;;;20.90;10.20;;;8.90;99.90;;;;;;5016271;28;20253;-83
2021/04/05 02:59:08;;;;;;;24.50;10.93;;;8.90;99.90;;;;;;5026130;28;20240;-81
2021/04/05 03:01:34;;;;;;;35.70;12.00;;;8.90;99.90;;;;;;5024016;28;20617;-85
2021/04/05 03:04:03;;;;;;;24.33;10.97;;;8.90;99.90;;;;;;5025454;28;20277;-80
2021/04/05 03:06:29;;;;;;;32.93;12.03;;;9.00;99.90;;;;;;5013108;28;20290;-83
2021/04/05 03:08:59;;;;;;;31.43;11.13;;;9.00;99.90;;;;;;5044221;28;20244;-82
2021/04/05 03:11:26;;;;;;;29.10;11.07;;;9.00;99.90;;;;;;5045367;28;20225;-80
2021/04/05 03:13:53;;;;;;;28.23;10.10;;;9.00;99.90;;;;;;5023933;28;20215;-83
2021/04/05 03:16:22;;;;;;;26.83;10.07;;;9.00;99.90;;;;;;5004953;28;20207;-82
2021/04/05 03:18:50;;;;;;;27.13;9.70;;;9.00;99.90;;;;;;5006037;28;20366;-82
2021/04/05 03:21:18;;;;;;;25.57;9.30;;;9.00;99.90;;;;;;5006281;28;20203;-83
2021/04/05 03:23:46;;;;;;;31.90;9.83;;;9.00;99.90;;;;;;5004919;28;20231;-83
2021/04/05 03:26:12;;;;;;;30.97;12.30;;;9.00;99.90;;;;;;5012373;28;20380;-82
2021/04/05 03:28:39;;;;;;;21.83;10.33;;;9.10;99.90;;;;;;5023215;28;20226;-81
2021/04/05 03:31:10;;;;;;;20.20;9.47;;;9.10;99.90;;;;;;5025410;28;20198;-81
2021/04/05 03:33:41;;;;;;;27.13;9.83;;;9.10;99.90;;;;;;5024770;28;20211;-82
2021/04/05 03:36:12;;;;;;;31.53;10.37;;;9.10;99.90;;;;;;5025650;28;20195;-82
2021/04/05 03:38:40;;;;;;;25.67;9.40;;;9.10;99.90;;;;;;5025919;28;20417;-83
2021/04/05 03:41:15;;;;;;;22.60;10.17;;;9.10;99.90;;;;;;5026008;28;20646;-83
2021/04/05 03:43:47;;;;;;;27.13;10.57;;;9.10;99.90;;;;;;5023539;28;20194;-83
2021/04/05 03:46:18;;;;;;;24.03;9.73;;;9.10;99.90;;;;;;5024374;28;20207;-82
2021/04/05 03:48:53;;;;;;;23.50;9.33;;;9.10;99.90;;;;;;5027096;28;20261;-84
2021/04/05 03:51:26;;;;;;;25.67;10.03;;;9.10;99.90;;;;;;5018427;28;20203;-82
2021/04/05 03:53:58;;;;;;;22.50;9.13;;;9.10;99.90;;;;;;5007245;28;20647;-85
2021/04/05 03:56:31;;;;;;;25.03;8.10;;;9.10;99.90;;;;;;5006649;28;20207;-83
2021/04/05 03:59:03;;;;;;;25.57;9.20;;;9.10;99.90;;;;;;5004885;28;20203;-81
2021/04/05 04:01:30;;;;;;;22.60;7.73;;;9.10;99.90;;;;;;5013979;28;20350;-83
2021/04/05 04:04:04;;;;;;;25.73;9.77;;;9.10;99.90;;;;;;5025338;28;20666;-83
2021/04/05 04:06:36;;;;;;;23.60;9.10;;;9.20;99.90;;;;;;5024893;28;20244;-83
2021/04/05 04:09:05;;;;;;;25.93;7.70;;;9.20;99.90;;;;;;5005326;28;20782;-83
2021/04/05 04:11:34;;;;;;;11.33;3.63;;;9.20;99.90;;;;;;5024853;28;20226;-88
2021/04/05 04:14:04;;;;;;;11.47;2.83;;;9.00;99.90;;;;;;5028096;28;20221;-89
2021/04/05 04:16:32;;;;;;;8.23;2.70;;;8.30;99.90;;;;;;5026073;28;20215;-82
2021/04/05 04:19:01;;;;;;;10.00;2.10;;;7.70;99.90;;;;;;5025694;28;20214;-82
2021/04/05 04:21:28;;;;;;;11.97;2.53;;;7.40;99.90;;;;;;5026110;28;20225;-83
2021/04/05 04:23:56;;;;;;;12.87;3.00;;;7.10;99.90;;;;;;5024624;28;20231;-83
2021/04/05 04:26:24;;;;;;;19.60;3.23;;;6.90;99.90;;;;;;5025325;28;20766;-83
2021/04/05 04:28:51;;;;;;;16.30;2.93;;;6.80;99.90;;;;;;5026022;28;20270;-84
2021/04/05 04:31:20;;;;;;;11.83;2.20;;;6.70;99.90;;;;;;5025846;28;20629;-83
2021/04/05 04:33:47;;;;;;;14.47;3.80;;;6.50;99.90;;;;;;5026316;28;20384;-84
2021/04/05 04:36:20;;;;;;;14.83;3.63;;;6.50;99.90;;;;;;5025705;28;20293;-81
2021/04/05 04:38:47;;;;;;;13.00;3.97;;;6.50;99.90;;;;;;5029005;28;20195;-83
2021/04/05 04:41:20;;;;;;;16.63;3.40;;;6.50;99.90;;;;;;5029591;28;20210;-83
2021/04/05 04:43:52;;;;;;;14.23;4.13;;;6.40;99.90;;;;;;5030675;28;20284;-84
2021/04/05 04:46:18;;;;;;;13.90;2.97;;;6.40;99.90;;;;;;5028171;28;20206;-86
2021/04/05 04:48:45;;;;;;;10.80;2.37;;;6.40;99.90;;;;;;5025123;28;20245;-84
2021/04/05 04:51:11;;;;;;;15.83;2.60;;;6.30;99.90;;;;;;5009152;28;20202;-81
2021/04/05 04:53:37;;;;;;;12.63;3.07;;;6.30;99.90;;;;;;5010044;28;20274;-82
2021/04/05 04:56:04;;;;;;;9.80;2.40;;;6.30;99.90;;;;;;5009673;28;20203;-81
2021/04/05 04:58:31;;;;;;;16.43;2.40;;;6.30;99.90;;;;;;5009345;28;20215;-82
2021/04/05 05:00:58;;;;;;;14.90;2.90;;;6.30;99.90;;;;;;5008173;28;20211;-83
2021/04/05 05:03:25;;;;;;;14.13;3.23;;;6.30;99.90;;;;;;5008609;28;20877;-82
2021/04/05 05:05:52;;;;;;;12.23;2.27;;;6.30;99.90;;;;;;5015541;28;20211;-83
2021/04/05 05:08:19;;;;;;;12.23;2.93;;;6.30;99.90;;;;;;5042387;28;20221;-87
2021/04/05 05:10:46;;;;;;;17.33;2.73;;;6.30;99.90;;;;;;5048652;28;20295;-84
2021/04/05 05:13:13;;;;;;;16.20;2.60;;;6.30;99.90;;;;;;5048407;28;20621;-81
2021/04/05 05:15:41;;;;;;;12.93;2.80;;;6.30;99.90;;;;;;5030888;28;20241;-81
2021/04/05 05:18:09;;;;;;;6.50;1.90;;;6.20;99.90;;;;;;5028843;28;20225;-83
2021/04/05 05:20:35;;;;;;;9.13;2.43;;;6.20;99.90;;;;;;5029826;28;20209;-84
2021/04/05 05:23:03;;;;;;;10.47;2.20;;;6.20;99.90;;;;;;5028033;28;20222;-83
2021/04/05 05:25:33;;;;;;;10.20;2.40;;;6.20;99.90;;;;;;5028648;28;20245;-85
2021/04/05 05:28:04;;;;;;;18.57;3.00;;;6.30;99.90;;;;;;5029537;28;20234;-83
2021/04/05 05:30:31;;;;;;;11.93;2.50;;;6.30;99.90;;;;;;5011143;28;20226;-83
2021/04/05 05:33:03;;;;;;;11.37;2.17;;;6.30;99.90;;;;;;5009932;28;20203;-83
2021/04/05 05:35:32;;;;;;;5.13;1.67;;;6.30;99.90;;;;;;5029474;28;20463;-85
2021/04/05 05:38:00;;;;;;;12.23;2.30;;;6.20;99.90;;;;;;5029486;28;20209;-81
2021/04/05 05:40:28;;;;;;;5.30;1.50;;;6.00;99.90;;;;;;5028586;28;20190;-82
2021/04/05 05:43:12;;;;;;;17.77;1.93;;;5.90;99.90;;;;;;5027049;28;20583;-83
2021/04/05 05:45:44;;;;;;;7.63;1.60;;;5.80;99.90;;;;;;5014109;28;20211;-88
2021/04/05 05:48:27;;;;;;;9.47;1.87;;;5.80;99.90;;;;;;5029377;28;20234;-82
2021/04/05 05:50:59;;;;;;;8.73;2.03;;;5.70;99.90;;;;;;5029486;28;20491;-82
2021/04/05 05:53:38;;;;;;;9.13;1.77;;;5.60;99.90;;;;;;5030894;28;20202;-85
2021/04/05 05:56:23;;;;;;;15.33;4.10;;;5.40;99.90;;;;;;5030779;28;20206;-85
2021/04/05 05:58:56;;;;;;;9.43;2.77;;;5.30;99.90;;;;;;5029549;28;20288;-88
2021/04/05 06:01:36;;;;;;;14.60;2.80;;;5.30;99.90;;;;;;5030616;28;20206;-83
2021/04/05 06:04:12;;;;;;;14.40;3.50;;;5.10;99.90;;;;;;5029773;28;20198;-84
2021/04/05 06:06:53;;;;;;;9.23;2.80;;;4.80;99.90;;;;;;5031146;28;20206;-82
2021/04/05 06:09:31;;;;;;;8.83;2.20;;;4.60;99.90;;;;;;5049323;28;20226;-84
2021/04/05 06:12:05;;;;;;;15.00;2.97;;;4.50;99.90;;;;;;5049472;28;20640;-85
2021/04/05 06:14:49;;;;;;;18.03;3.53;;;4.60;99.90;;;;;;5034958;28;20221;-84
2021/04/05 06:17:25;;;;;;;19.40;3.47;;;4.70;99.90;;;;;;5008966;28;20294;-85
2021/04/05 06:19:53;;;;;;;18.83;4.23;;;4.70;99.90;;;;;;5008509;28;20208;-85
2021/04/05 06:22:32;;;;;;;16.27;3.63;;;4.80;99.90;;;;;;5018175;28;20272;-83
2021/04/05 06:25:10;;;;;;;16.57;3.93;;;4.90;99.90;;;;;;5028996;28;20261;-82
2021/04/05 06:27:42;;;;;;;12.83;2.70;;;4.90;99.90;;;;;;5017397;28;20211;-85
2021/04/05 06:30:25;;;;;;;14.37;3.07;;;4.80;99.90;;;;;;5011577;28;20222;-81
2021/04/05 06:32:56;;;;;;;26.13;4.67;;;4.70;99.90;;;;;;5020770;28;20214;-79
2021/04/05 06:35:58;;;;;;;26.80;3.77;;;4.80;99.90;;;;;;5011246;28;20207;-84
2021/04/05 06:38:28;;;;;;;16.07;3.30;;;4.70;99.90;;;;;;5009146;28;20674;-82
2021/04/05 06:40:57;;;;;;;12.40;2.57;;;4.70;99.90;;;;;;4985333;28;20199;-84
2021/04/05 06:44:05;;;;;;;7.73;2.63;;;4.80;99.90;;;;;;5008566;28;20210;-81
2021/04/05 06:47:00;;;;;;;12.07;2.80;;;4.80;99.90;;;;;;4947611;28;20750;-81
2021/04/05 06:49:41;;;;;;;8.17;2.33;;;4.80;99.90;;;;;;4947742;29;20225;-85
2021/04/05 06:52:24;;;;;;;21.83;3.57;;;4.90;99.90;;;;;;4994990;28;20207;-83
2021/04/05 06:55:20;;;;;;;16.80;4.83;;;4.90;99.90;;;;;;5004461;28;20623;-81
2021/04/05 06:58:02;;;;;;;19.43;4.33;;;4.90;99.90;;;;;;5008349;28;20246;-84
2021/04/05 07:00:35;;;;;;;17.53;3.20;;;5.00;99.90;;;;;;5008083;28;20195;-84
2021/04/05 07:03:23;;;;;;;9.77;2.93;;;5.00;99.90;;;;;;5028311;28;20213;-86
2021/04/05 07:06:15;;;;;;;13.17;2.53;;;5.10;99.90;;;;;;5027783;28;20237;-80
2021/04/05 07:09:02;;;;;;;9.83;2.83;;;5.10;99.90;;;;;;5016190;28;20230;-81
2021/04/05 07:11:39;;;;;;;7.70;2.10;;;5.20;99.90;;;;;;4986743;28;20924;-83
2021/04/05 07:14:26;;;;;;;11.63;2.40;;;5.20;99.90;;;;;;5006382;28;20202;-85
2021/04/05 07:17:03;;;;;;;17.30;3.03;;;5.30;99.90;;;;;;5007523;28;20198;-85
2021/04/05 07:19:54;;;;;;;12.70;2.53;;;5.30;99.90;;;;;;5006839;28;20206;-83
2021/04/05 07:22:32;;;;;;;21.10;4.27;;;5.30;99.90;;;;;;5011065;28;20206;-82
2021/04/05 07:25:02;;;;;;;11.57;2.70;;;5.30;99.90;;;;;;5026469;28;20285;-84
2021/04/05 07:27:38;;;;;;;8.37;2.00;;;5.20;99.90;;;;;;5025680;28;20190;-84
2021/04/05 11:31:56;;;;;;;7.90;2.00;;;4.20;99.90;;;;;;5863116;23;20253;-82
2021/04/05 11:34:28;;;;;;;3.87;0.90;;;4.50;99.90;;;;;;5024771;28;20816;-80
2021/04/05 11:36:58;;;;;;;3.63;0.97;;;4.60;99.90;;;;;;5024799;28;20840;-82
2021/04/05 11:39:29;;;;;;;4.80;1.50;;;4.70;99.90;;;;;;5025357;28;20207;-79
2021/04/05 11:45:33;;;;;;;3.33;1.17;;;5.40;99.90;;;;;;4962410;28;20282;-76
2021/04/05 11:48:03;;;;;;;6.60;1.37;;;5.70;99.90;;;;;;5020287;28;20268;-78
2021/04/05 11:50:31;;;;;;;7.97;1.90;;;5.80;99.90;;;;;;5023569;28;20190;-81
2021/04/05 11:53:05;;;;;;;6.63;1.23;;;5.90;99.90;;;;;;5007736;28;20222;-82
2021/04/05 11:55:34;;;;;;;7.07;1.60;;;5.90;99.90;;;;;;5014083;28;20258;-76
2021/04/05 11:58:03;;;;;;;7.27;1.80;;;5.90;99.90;;;;;;5024756;28;20862;-83
2021/04/05 12:00:36;;;;;;;9.57;1.50;;;6.10;99.90;;;;;;5023578;28;20211;-81
2021/04/05 12:03:10;;;;;;;7.73;1.50;;;6.10;99.90;;;;;;5024929;28;20309;-86
2021/04/05 12:05:41;;;;;;;9.37;1.70;;;6.00;99.90;;;;;;5026865;28;20198;-83
2021/04/05 12:08:13;;;;;;;7.87;1.40;;;6.20;99.90;;;;;;5024897;28;20244;-81
2021/04/05 12:10:42;;;;;;;8.43;2.27;;;6.30;99.90;;;;;;5026009;28;20576;-82
2021/04/05 12:13:13;;;;;;;7.00;1.43;;;6.20;99.90;;;;;;5028011;28;20249;-86
2021/04/05 12:15:42;;;;;;;5.70;1.50;;;6.30;99.90;;;;;;5026914;28;20700;-85
2021/04/05 12:18:10;;;;;;;8.70;1.83;;;6.50;99.90;;;;;;5026239;28;20206;-82
2021/04/05 12:20:38;;;;;;;4.73;1.50;;;6.60;99.90;;;;;;5026658;28;20241;-89
2021/04/05 12:23:08;;;;;;;7.87;1.40;;;6.40;99.90;;;;;;5026928;28;20203;-84
2021/04/05 12:25:37;;;;;;;15.10;2.10;;;6.60;99.90;;;;;;5026721;28;20629;-83
2021/04/05 12:28:07;;;;;;;6.63;2.23;;;6.90;99.90;;;;;;5024955;28;20234;-84
2021/04/05 12:30:35;;;;;;;6.63;2.20;;;7.00;99.90;;;;;;5027478;28;20198;-85
2021/04/05 12:33:04;;;;;;;15.30;1.93;;;7.10;99.90;;;;;;5016016;28;20588;-87
2021/04/05 12:35:33;;;;;;;9.10;2.07;;;7.10;99.90;;;;;;5007051;28;20211;-81
2021/04/05 12:38:06;;;;;;;4.77;1.37;;;7.00;99.90;;;;;;5007474;28;20199;-84
2021/04/05 12:40:35;;;;;;;3.67;1.07;;;6.70;99.90;;;;;;5008817;28;20195;-85
2021/04/05 12:43:06;;;;;;;7.13;1.53;;;6.40;99.90;;;;;;5007452;28;20202;-84
2021/04/05 12:45:35;;;;;;;5.33;2.00;;;5.90;99.90;;;;;;5006468;28;20203;-82
2021/04/05 12:48:03;;;;;;;6.10;1.20;;;5.30;99.90;;;;;;5023629;28;20241;-79
2021/04/05 12:50:33;;;;;;;3.33;0.90;;;4.90;99.90;;;;;;5018630;28;20203;-81
2021/04/05 12:53:03;;;;;;;1.97;0.87;;;4.50;99.90;;;;;;5002181;28;20202;-79
2021/04/05 12:55:35;;;;;;;4.00;0.97;;;4.30;99.90;;;;;;5002269;28;20195;-79
2021/04/05 12:58:02;;;;;;;2.87;0.90;;;4.50;99.90;;;;;;5002667;28;20219;-79
2021/04/05 13:00:29;;;;;;;4.60;2.30;;;4.50;99.90;;;;;;5004566;28;20878;-79
2021/04/05 13:03:00;;;;;;;3.93;1.60;;;4.80;99.90;;;;;;5006288;28;20210;-78
2021/04/05 13:05:35;;;;;;;9.63;1.60;;;5.10;99.90;;;;;;5012650;28;20526;-81
2021/04/05 13:08:07;;;;;;;6.13;1.83;;;5.30;99.90;;;;;;5036739;28;20228;-81
2021/04/05 13:10:41;;;;;;;5.23;1.47;;;5.50;99.90;;;;;;5047266;28;20500;-81
2021/04/05 13:13:12;;;;;;;5.40;1.63;;;5.80;99.90;;;;;;5038521;28;20965;-80
2021/04/05 13:15:43;;;;;;;5.43;1.50;;;5.70;99.90;;;;;;5027357;28;20602;-83
2021/04/05 13:18:14;;;;;;;12.33;2.37;;;5.80;99.90;;;;;;5027533;28;20197;-78
2021/04/05 13:20:47;;;;;;;8.00;2.07;;;5.80;99.90;;;;;;5027850;28;20206;-81
2021/04/05 13:23:15;;;;;;;5.10;1.27;;;6.10;99.90;;;;;;5006468;28;20238;-81
2021/04/05 13:25:52;;;;;;;8.83;1.90;;;6.20;99.90;;;;;;5040406;28;20213;-82
2021/04/05 13:28:21;;;;;;;8.23;2.00;;;6.60;99.90;;;;;;5027389;28;20524;-80
2021/04/05 13:30:50;;;;;;;8.53;2.07;;;6.50;99.90;;;;;;5024498;28;20206;-79
2021/04/05 13:33:24;;;;;;;10.80;1.70;;;6.60;99.90;;;;;;5025440;28;20230;-87
2021/04/05 13:36:02;;;;;;;11.73;2.90;;;6.70;99.90;;;;;;5026141;28;20198;-83
2021/04/05 13:38:29;;;;;;;5.30;1.60;;;6.70;99.90;;;;;;4995517;28;20208;-80
2021/04/05 13:41:04;;;;;;;9.73;1.70;;;6.60;99.90;;;;;;4986607;28;20200;-81
2021/04/05 13:43:31;;;;;;;7.03;1.30;;;6.60;99.90;;;;;;4986553;28;20183;-85
2021/04/05 13:45:58;;;;;;;6.37;1.70;;;6.40;99.90;;;;;;4987712;28;20203;-78
2021/04/05 13:48:29;;;;;;;8.20;1.63;;;6.40;99.90;;;;;;4989381;28;20227;-90
2021/04/05 13:50:58;;;;;;;8.90;2.57;;;6.30;99.90;;;;;;4987253;28;20203;-78
2021/04/05 13:53:30;;;;;;;10.07;3.00;;;6.40;99.90;;;;;;4984886;28;20200;-82
2021/04/05 13:55:58;;;;;;;14.93;2.47;;;6.60;99.90;;;;;;4985987;28;20222;-83
2021/04/05 13:58:30;;;;;;;8.90;2.00;;;6.60;99.90;;;;;;4988376;28;20250;-86
2021/04/05 14:01:04;;;;;;;7.40;1.60;;;6.40;99.90;;;;;;4985197;28;20660;-81
2021/04/05 14:03:34;;;;;;;12.93;2.50;;;6.30;99.90;;;;;;4985553;28;20747;-80
2021/04/05 14:06:03;;;;;;;7.00;1.93;;;6.40;99.90;;;;;;4985018;28;20227;-81
2021/04/05 14:08:31;;;;;;;10.50;1.50;;;6.50;99.90;;;;;;5013419;28;20512;-79
2021/04/05 14:11:02;;;;;;;14.13;2.73;;;6.60;99.90;;;;;;4985314;28;20335;-80
2021/04/05 14:13:31;;;;;;;14.67;2.63;;;6.70;99.90;;;;;;4985728;28;20192;-78
2021/04/05 14:15:57;;;;;;;8.87;2.30;;;6.50;99.90;;;;;;4986350;28;20228;-83
2021/04/05 14:18:30;;;;;;;13.60;2.60;;;6.30;99.90;;;;;;4986232;28;20200;-81
2021/04/05 14:20:57;;;;;;;10.10;2.10;;;6.30;99.90;;;;;;5004200;28;20616;-82
2021/04/05 14:23:26;;;;;;;15.20;2.73;;;6.40;99.90;;;;;;5004867;28;20199;-80
2021/04/05 14:25:57;;;;;;;11.70;2.10;;;6.30;99.90;;;;;;4994240;28;20222;-82
2021/04/05 14:28:27;;;;;;;12.20;3.03;;;6.40;99.90;;;;;;4985967;28;20327;-78
2021/04/05 14:30:56;;;;;;;8.10;1.93;;;6.50;99.90;;;;;;4985402;28;20212;-79
2021/04/05 14:33:27;;;;;;;8.70;2.23;;;6.50;99.90;;;;;;5004314;28;20247;-79
2021/04/05 14:35:59;;;;;;;13.47;2.27;;;6.60;99.90;;;;;;5015158;28;20677;-77
2021/04/05 14:38:29;;;;;;;8.50;3.10;;;6.60;99.90;;;;;;5024940;28;20250;-82
2021/04/05 14:41:07;;;;;;;13.53;2.70;;;6.40;99.90;;;;;;5025211;28;20222;-82
2021/04/05 14:43:37;;;;;;;10.10;2.83;;;6.30;99.90;;;;;;5026083;28;20358;-76
2021/04/05 14:46:05;;;;;;;7.63;1.97;;;6.20;99.90;;;;;;5023216;28;20509;-79
2021/04/05 14:48:33;;;;;;;8.33;2.37;;;6.20;99.90;;;;;;5025395;28;20551;-79
2021/04/05 14:51:01;;;;;;;15.43;3.97;;;6.10;99.90;;;;;;5018368;28;20559;-82
2021/04/05 14:53:30;;;;;;;12.40;3.30;;;6.10;99.90;;;;;;5005733;28;20199;-77
2021/04/05 14:56:04;;;;;;;10.90;2.40;;;6.10;99.90;;;;;;5005164;28;20199;-80
2021/04/05 14:58:31;;;;;;;8.77;2.07;;;6.10;99.90;;;;;;5004173;28;20214;-80
2021/04/05 15:01:08;;;;;;;21.03;2.40;;;6.00;99.90;;;;;;5005568;28;20211;-80
2021/04/05 15:03:34;;;;;;;8.40;1.53;;;6.00;99.90;;;;;;5008540;28;20198;-85
2021/04/05 15:06:07;;;;;;;14.73;2.73;;;6.00;99.90;;;;;;5026217;28;20198;-82
2021/04/05 15:08:42;;;;;;;13.77;2.63;;;5.90;99.90;;;;;;5042488;28;20248;-82
2021/04/05 15:11:12;;;;;;;8.27;2.07;;;5.60;99.90;;;;;;5011826;28;20199;-79
2021/04/05 15:13:44;;;;;;;6.60;1.30;;;5.00;99.90;;;;;;5003382;28;20238;-79
2021/04/05 15:16:15;;;;;;;7.70;1.67;;;4.40;99.90;;;;;;5004410;28;20234;-80
2021/04/05 15:18:43;;;;;;;6.53;1.80;;;3.90;99.90;;;;;;5004096;28;20192;-78
2021/04/05 15:21:10;;;;;;;8.57;1.80;;;3.70;99.90;;;;;;5003163;28;20219;-79
2021/04/05 15:23:41;;;;;;;8.97;1.90;;;3.60;99.90;;;;;;5003158;28;20210;-79
2021/04/05 15:26:09;;;;;;;7.30;2.00;;;3.60;99.90;;;;;;5003878;28;20203;-79
2021/04/05 15:28:37;;;;;;;13.30;3.30;;;3.70;99.90;;;;;;5002703;28;20231;-79
2021/04/05 15:31:07;;;;;;;8.27;2.30;;;3.80;99.90;;;;;;5011225;28;20218;-78
2021/04/05 15:33:35;;;;;;;8.67;2.10;;;3.90;99.90;;;;;;5023318;28;20238;-78
2021/04/05 15:36:02;;;;;;;10.27;2.30;;;4.10;99.90;;;;;;5013059;28;20598;-79
2021/04/05 15:38:31;;;;;;;9.73;2.23;;;4.30;99.90;;;;;;5003881;28;20595;-79
2021/04/05 15:41:00;;;;;;;14.63;2.40;;;4.40;99.90;;;;;;5020696;28;20298;-79
2021/04/05 15:43:30;;;;;;;11.80;2.77;;;4.60;99.90;;;;;;5023545;28;20207;-78
2021/04/05 15:46:03;;;;;;;12.73;3.37;;;4.80;99.90;;;;;;5013476;28;20211;-81
2021/04/05 15:48:36;;;;;;;11.50;2.23;;;4.90;99.90;;;;;;5003299;28;20204;-79
2021/04/05 15:51:13;;;;;;;8.23;3.23;;;5.00;99.90;;;;;;5004915;28;20236;-79
2021/04/05 15:53:44;;;;;;;9.50;3.10;;;5.10;99.90;;;;;;5005304;28;20218;-79
2021/04/05 15:56:15;;;;;;;15.10;2.70;;;5.20;99.90;;;;;;5004241;28;20998;-82
2021/04/05 15:58:45;;;;;;;9.07;2.27;;;5.40;99.90;;;;;;5004045;28;20227;-82
2021/04/05 16:01:14;;;;;;;15.67;3.10;;;5.50;99.90;;;;;;5012642;28;20221;-79
2021/04/05 16:03:49;;;;;;;13.20;3.03;;;5.60;99.90;;;;;;5023499;28;20252;-81
2021/04/05 16:06:23;;;;;;;11.00;2.87;;;5.60;99.90;;;;;;5024390;28;20245;-84
2021/04/05 16:08:55;;;;;;;9.77;2.57;;;5.80;99.90;;;;;;5043783;28;20217;-80
2021/04/05 16:11:26;;;;;;;11.23;3.30;;;5.80;99.90;;;;;;5046776;28;20198;-84
2021/04/05 16:13:58;;;;;;;7.60;2.40;;;5.80;99.90;;;;;;5029346;28;20206;-83
2021/04/05 16:16:26;;;;;;;12.07;2.80;;;5.80;99.90;;;;;;5023372;28;20222;-81
2021/04/05 16:18:55;;;;;;;15.10;2.80;;;5.70;99.90;;;;;;5025623;28;20211;-83
2021/04/05 16:21:26;;;;;;;17.00;2.50;;;5.60;99.90;;;;;;5026322;28;20209;-82
2021/04/05 16:23:55;;;;;;;10.67;2.40;;;5.50;99.90;;;;;;5026173;28;20773;-84
2021/04/05 16:26:26;;;;;;;8.93;2.60;;;5.50;99.90;;;;;;5025753;28;20206;-87
2021/04/05 16:28:59;;;;;;;10.67;2.73;;;5.50;99.90;;;;;;5026755;28;20219;-79
2021/04/05 16:31:31;;;;;;;18.53;2.40;;;5.60;99.90;;;;;;5021318;28;20211;-83
2021/04/05 16:34:03;;;;;;;9.97;2.40;;;5.50;99.90;;;;;;5009353;28;20206;-83
2021/04/05 16:36:30;;;;;;;10.07;2.73;;;5.50;99.90;;;;;;5011536;28;20206;-83
2021/04/05 16:39:03;;;;;;;19.57;3.30;;;5.30;99.90;;;;;;5012789;28;20866;-86
2021/04/05 16:41:36;;;;;;;14.93;3.77;;;5.30;99.90;;;;;;5012956;28;20202;-85
2021/04/05 16:44:04;;;;;;;17.50;3.50;;;5.30;99.90;;;;;;5020305;28;20206;-79
2021/04/05 16:46:32;;;;;;;12.63;3.10;;;5.20;99.90;;;;;;5032109;28;20293;-86
2021/04/05 16:49:00;;;;;;;20.73;5.10;;;5.20;99.90;;;;;;5030621;28;20589;-79
2021/04/05 16:51:36;;;;;;;19.90;4.40;;;5.30;99.90;;;;;;5030465;28;20202;-84
2021/04/05 16:54:04;;;;;;;19.90;4.20;;;5.40;99.90;;;;;;5020372;28;20248;-82
2021/04/05 16:56:34;;;;;;;19.67;4.53;;;5.60;99.90;;;;;;5011778;28;20894;-87
2021/04/05 16:59:07;;;;;;;13.80;3.40;;;5.80;99.90;;;;;;5011097;28;20199;-81
2021/04/05 17:01:39;;;;;;;14.07;3.90;;;5.90;99.90;;;;;;5012985;28;20195;-83
2021/04/05 17:04:10;;;;;;;11.17;3.70;;;5.90;99.90;;;;;;5013014;28;20748;-90
2021/04/05 17:06:43;;;;;;;11.70;3.00;;;5.80;99.90;;;;;;5014597;28;20207;-84
2021/04/05 17:09:11;;;;;;;19.07;3.70;;;5.80;99.90;;;;;;5012025;28;20261;-87
2021/04/05 17:11:46;;;;;;;15.70;4.00;;;5.80;99.90;;;;;;5012302;28;20202;-80